sensor_id;sensor_type;location;lat;lon;timestamp;P1;durP1;ratioP1;P2;durP2;ratioP2
15812;SDS011;8007;51.404;6.304;2023-07-02T00:01:58;5.77;;;3.97;;
15812;SDS011;8007;51.404;6.304;2023-07-02T00:04:00;5.33;;;3.70;;
15812;SDS011;8007;51.404;6.304;2023-07-02T00:06:04;5.73;;;3.30;;
15812;SDS011;8007;51.404;6.304;2023-07-02T00:08:06;6.27;;;4.13;;
15812;SDS011;8007;51.404;6.304;2023-07-02T00:10:09;11.00;;;4.13;;
15812;SDS011;8007;51.404;6.304;2023-07-02T00:12:11;7.67;;;4.50;;
15812;SDS011;8007;51.404;6.304;2023-07-02T00:14:14;6.80;;;3.90;;
15812;SDS011;8007;51.404;6.304;2023-07-02T00:16:16;7.13;;;3.93;;
15812;SDS011;8007;51.404;6.304;2023-07-02T00:18:18;5.30;;;3.47;;
15812;SDS011;8007;51.404;6.304;2023-07-02T00:20:21;8.17;;;4.30;;
15812;SDS011;8007;51.404;6.304;2023-07-02T00:22:24;8.10;;;3.83;;
15812;SDS011;8007;51.404;6.304;2023-07-02T00:24:27;8.23;;;4.30;;
15812;SDS011;8007;51.404;6.304;2023-07-02T00:26:29;7.90;;;3.97;;
15812;SDS011;8007;51.404;6.304;2023-07-02T00:28:31;6.93;;;3.90;;
15812;SDS011;8007;51.404;6.304;2023-07-02T00:30:33;6.63;;;3.70;;
15812;SDS011;8007;51.404;6.304;2023-07-02T00:32:36;6.80;;;4.30;;
15812;SDS011;8007;51.404;6.304;2023-07-02T00:34:38;7.60;;;4.30;;
15812;SDS011;8007;51.404;6.304;2023-07-02T00:36:40;8.70;;;4.30;;
15812;SDS011;8007;51.404;6.304;2023-07-02T00:38:45;6.73;;;4.07;;
15812;SDS011;8007;51.404;6.304;2023-07-02T00:40:49;5.63;;;3.77;;
15812;SDS011;8007;51.404;6.304;2023-07-02T00:42:51;5.30;;;4.00;;
15812;SDS011;8007;51.404;6.304;2023-07-02T00:44:53;8.63;;;4.43;;
15812;SDS011;8007;51.404;6.304;2023-07-02T00:46:57;8.77;;;4.20;;
15812;SDS011;8007;51.404;6.304;2023-07-02T00:48:59;6.37;;;4.00;;
15812;SDS011;8007;51.404;6.304;2023-07-02T00:51:01;9.57;;;4.23;;
15812;SDS011;8007;51.404;6.304;2023-07-02T00:53:04;8.53;;;4.10;;
15812;SDS011;8007;51.404;6.304;2023-07-02T00:55:08;9.97;;;4.07;;
15812;SDS011;8007;51.404;6.304;2023-07-02T00:57:10;7.40;;;3.77;;
15812;SDS011;8007;51.404;6.304;2023-07-02T00:59:13;5.93;;;4.27;;
15812;SDS011;8007;51.404;6.304;2023-07-02T01:01:16;7.90;;;4.50;;
15812;SDS011;8007;51.404;6.304;2023-07-02T01:03:19;7.50;;;4.40;;
15812;SDS011;8007;51.404;6.304;2023-07-02T01:05:21;7.23;;;4.10;;
15812;SDS011;8007;51.404;6.304;2023-07-02T01:07:24;10.37;;;4.33;;
15812;SDS011;8007;51.404;6.304;2023-07-02T01:09:26;8.77;;;5.00;;
15812;SDS011;8007;51.404;6.304;2023-07-02T01:11:32;11.97;;;5.03;;
15812;SDS011;8007;51.404;6.304;2023-07-02T01:13:36;10.43;;;4.60;;
15812;SDS011;8007;51.404;6.304;2023-07-02T01:15:38;11.10;;;5.40;;
15812;SDS011;8007;51.404;6.304;2023-07-02T01:17:41;9.03;;;4.87;;
15812;SDS011;8007;51.404;6.304;2023-07-02T01:19:45;8.73;;;5.27;;
15812;SDS011;8007;51.404;6.304;2023-07-02T01:21:51;9.83;;;5.83;;
15812;SDS011;8007;51.404;6.304;2023-07-02T01:23:53;15.13;;;5.77;;
15812;SDS011;8007;51.404;6.304;2023-07-02T01:25:55;12.10;;;6.23;;
15812;SDS011;8007;51.404;6.304;2023-07-02T01:27:59;12.57;;;6.17;;
15812;SDS011;8007;51.404;6.304;2023-07-02T01:30:02;8.93;;;5.67;;
15812;SDS011;8007;51.404;6.304;2023-07-02T01:32:06;9.87;;;5.77;;
15812;SDS011;8007;51.404;6.304;2023-07-02T01:34:09;10.97;;;5.83;;
15812;SDS011;8007;51.404;6.304;2023-07-02T01:36:12;13.00;;;6.60;;
15812;SDS011;8007;51.404;6.304;2023-07-02T01:38:15;12.87;;;5.90;;
15812;SDS011;8007;51.404;6.304;2023-07-02T01:40:17;15.40;;;6.67;;
15812;SDS011;8007;51.404;6.304;2023-07-02T01:42:20;11.00;;;5.80;;
15812;SDS011;8007;51.404;6.304;2023-07-02T01:44:23;13.00;;;6.40;;
15812;SDS011;8007;51.404;6.304;2023-07-02T01:46:25;13.33;;;6.60;;
15812;SDS011;8007;51.404;6.304;2023-07-02T01:48:28;12.77;;;6.13;;
15812;SDS011;8007;51.404;6.304;2023-07-02T01:50:30;15.63;;;6.20;;
15812;SDS011;8007;51.404;6.304;2023-07-02T01:52:34;16.57;;;7.10;;
15812;SDS011;8007;51.404;6.304;2023-07-02T01:54:36;19.73;;;6.90;;
15812;SDS011;8007;51.404;6.304;2023-07-02T01:56:38;15.60;;;7.00;;
15812;SDS011;8007;51.404;6.304;2023-07-02T01:58:41;17.27;;;7.83;;
15812;SDS011;8007;51.404;6.304;2023-07-02T02:00:46;16.03;;;7.13;;
15812;SDS011;8007;51.404;6.304;2023-07-02T02:02:48;15.07;;;7.40;;
15812;SDS011;8007;51.404;6.304;2023-07-02T02:04:50;14.47;;;7.33;;
15812;SDS011;8007;51.404;6.304;2023-07-02T02:06:53;14.77;;;6.93;;
15812;SDS011;8007;51.404;6.304;2023-07-02T02:08:56;15.93;;;7.17;;
15812;SDS011;8007;51.404;6.304;2023-07-02T02:10:59;16.60;;;7.77;;
15812;SDS011;8007;51.404;6.304;2023-07-02T02:13:01;17.17;;;7.83;;
15812;SDS011;8007;51.404;6.304;2023-07-02T02:15:06;18.60;;;8.43;;
15812;SDS011;8007;51.404;6.304;2023-07-02T02:17:09;13.77;;;8.30;;
15812;SDS011;8007;51.404;6.304;2023-07-02T02:19:11;14.90;;;7.50;;
15812;SDS011;8007;51.404;6.304;2023-07-02T02:21:14;19.50;;;8.07;;
15812;SDS011;8007;51.404;6.304;2023-07-02T02:23:17;16.07;;;7.77;;
15812;SDS011;8007;51.404;6.304;2023-07-02T02:25:21;18.90;;;8.83;;
15812;SDS011;8007;51.404;6.304;2023-07-02T02:27:23;16.40;;;8.00;;
15812;SDS011;8007;51.404;6.304;2023-07-02T02:29:25;15.37;;;7.67;;
15812;SDS011;8007;51.404;6.304;2023-07-02T02:31:28;16.57;;;8.63;;
15812;SDS011;8007;51.404;6.304;2023-07-02T02:33:31;13.90;;;7.73;;
15812;SDS011;8007;51.404;6.304;2023-07-02T02:35:35;15.90;;;7.80;;
15812;SDS011;8007;51.404;6.304;2023-07-02T02:37:37;12.90;;;7.70;;
15812;SDS011;8007;51.404;6.304;2023-07-02T02:39:40;14.97;;;8.10;;
15812;SDS011;8007;51.404;6.304;2023-07-02T02:41:44;15.30;;;7.80;;
15812;SDS011;8007;51.404;6.304;2023-07-02T02:43:46;16.80;;;8.40;;
15812;SDS011;8007;51.404;6.304;2023-07-02T02:45:48;17.30;;;9.43;;
15812;SDS011;8007;51.404;6.304;2023-07-02T02:47:51;20.43;;;9.23;;
15812;SDS011;8007;51.404;6.304;2023-07-02T02:49:53;18.13;;;8.33;;
15812;SDS011;8007;51.404;6.304;2023-07-02T02:51:55;17.67;;;8.73;;
15812;SDS011;8007;51.404;6.304;2023-07-02T02:53:58;15.57;;;7.83;;
15812;SDS011;8007;51.404;6.304;2023-07-02T02:56:00;23.03;;;8.93;;
15812;SDS011;8007;51.404;6.304;2023-07-02T02:58:04;18.83;;;8.90;;
15812;SDS011;8007;51.404;6.304;2023-07-02T03:00:06;23.57;;;9.80;;
15812;SDS011;8007;51.404;6.304;2023-07-02T03:02:10;17.53;;;8.90;;
15812;SDS011;8007;51.404;6.304;2023-07-02T03:04:12;18.53;;;10.17;;
15812;SDS011;8007;51.404;6.304;2023-07-02T03:06:14;23.27;;;9.43;;
15812;SDS011;8007;51.404;6.304;2023-07-02T03:08:16;15.40;;;8.87;;
15812;SDS011;8007;51.404;6.304;2023-07-02T03:10:19;15.33;;;8.97;;
15812;SDS011;8007;51.404;6.304;2023-07-02T03:12:24;21.07;;;9.47;;
15812;SDS011;8007;51.404;6.304;2023-07-02T03:14:28;21.90;;;10.43;;
15812;SDS011;8007;51.404;6.304;2023-07-02T03:16:30;17.87;;;9.23;;
15812;SDS011;8007;51.404;6.304;2023-07-02T03:18:33;19.17;;;9.73;;
15812;SDS011;8007;51.404;6.304;2023-07-02T03:20:36;19.27;;;9.53;;
15812;SDS011;8007;51.404;6.304;2023-07-02T03:22:38;20.87;;;9.47;;
15812;SDS011;8007;51.404;6.304;2023-07-02T03:24:41;20.53;;;10.40;;
15812;SDS011;8007;51.404;6.304;2023-07-02T03:26:43;21.57;;;9.50;;
15812;SDS011;8007;51.404;6.304;2023-07-02T03:28:45;21.30;;;10.57;;
15812;SDS011;8007;51.404;6.304;2023-07-02T03:30:49;19.00;;;10.17;;
15812;SDS011;8007;51.404;6.304;2023-07-02T03:32:51;20.00;;;10.40;;
15812;SDS011;8007;51.404;6.304;2023-07-02T03:34:54;23.97;;;9.93;;
15812;SDS011;8007;51.404;6.304;2023-07-02T03:36:56;23.93;;;11.20;;
15812;SDS011;8007;51.404;6.304;2023-07-02T03:39:01;20.03;;;10.47;;
15812;SDS011;8007;51.404;6.304;2023-07-02T03:41:04;23.27;;;11.13;;
15812;SDS011;8007;51.404;6.304;2023-07-02T03:43:06;22.67;;;10.87;;
15812;SDS011;8007;51.404;6.304;2023-07-02T03:45:11;22.07;;;10.67;;
15812;SDS011;8007;51.404;6.304;2023-07-02T03:47:18;20.40;;;11.03;;
15812;SDS011;8007;51.404;6.304;2023-07-02T03:49:21;21.17;;;11.40;;
15812;SDS011;8007;51.404;6.304;2023-07-02T03:51:23;19.90;;;10.47;;
15812;SDS011;8007;51.404;6.304;2023-07-02T03:53:25;22.50;;;11.03;;
15812;SDS011;8007;51.404;6.304;2023-07-02T03:55:28;23.17;;;11.70;;
15812;SDS011;8007;51.404;6.304;2023-07-02T03:57:32;23.87;;;11.13;;
15812;SDS011;8007;51.404;6.304;2023-07-02T03:59:35;23.93;;;11.77;;
15812;SDS011;8007;51.404;6.304;2023-07-02T04:01:37;21.50;;;11.63;;
15812;SDS011;8007;51.404;6.304;2023-07-02T04:03:42;23.27;;;10.63;;
15812;SDS011;8007;51.404;6.304;2023-07-02T04:05:48;22.70;;;11.57;;
15812;SDS011;8007;51.404;6.304;2023-07-02T04:07:51;20.50;;;11.00;;
15812;SDS011;8007;51.404;6.304;2023-07-02T04:09:53;18.97;;;10.83;;
15812;SDS011;8007;51.404;6.304;2023-07-02T04:11:55;33.87;;;12.33;;
15812;SDS011;8007;51.404;6.304;2023-07-02T04:13:58;23.23;;;11.43;;
15812;SDS011;8007;51.404;6.304;2023-07-02T04:16:00;24.10;;;12.03;;
15812;SDS011;8007;51.404;6.304;2023-07-02T04:18:02;25.93;;;11.63;;
15812;SDS011;8007;51.404;6.304;2023-07-02T04:20:09;21.43;;;11.50;;
15812;SDS011;8007;51.404;6.304;2023-07-02T04:22:12;25.27;;;12.67;;
15812;SDS011;8007;51.404;6.304;2023-07-02T04:24:18;22.07;;;11.57;;
15812;SDS011;8007;51.404;6.304;2023-07-02T04:26:20;27.43;;;11.70;;
15812;SDS011;8007;51.404;6.304;2023-07-02T04:28:22;25.93;;;12.33;;
15812;SDS011;8007;51.404;6.304;2023-07-02T04:30:25;23.00;;;11.33;;
15812;SDS011;8007;51.404;6.304;2023-07-02T04:32:27;26.23;;;12.13;;
15812;SDS011;8007;51.404;6.304;2023-07-02T04:34:29;24.40;;;11.70;;
15812;SDS011;8007;51.404;6.304;2023-07-02T04:36:33;27.47;;;12.67;;
15812;SDS011;8007;51.404;6.304;2023-07-02T04:38:35;29.50;;;12.17;;
15812;SDS011;8007;51.404;6.304;2023-07-02T04:40:40;26.60;;;12.80;;
15812;SDS011;8007;51.404;6.304;2023-07-02T04:42:44;28.80;;;12.10;;
15812;SDS011;8007;51.404;6.304;2023-07-02T04:44:47;27.23;;;12.57;;
15812;SDS011;8007;51.404;6.304;2023-07-02T04:46:49;33.23;;;14.57;;
15812;SDS011;8007;51.404;6.304;2023-07-02T04:48:52;28.03;;;13.83;;
15812;SDS011;8007;51.404;6.304;2023-07-02T04:50:57;27.00;;;12.57;;
15812;SDS011;8007;51.404;6.304;2023-07-02T04:53:01;22.33;;;12.07;;
15812;SDS011;8007;51.404;6.304;2023-07-02T04:55:03;23.20;;;12.57;;
15812;SDS011;8007;51.404;6.304;2023-07-02T04:57:06;26.97;;;12.07;;
15812;SDS011;8007;51.404;6.304;2023-07-02T04:59:08;25.20;;;13.17;;
15812;SDS011;8007;51.404;6.304;2023-07-02T05:01:10;26.87;;;12.50;;
15812;SDS011;8007;51.404;6.304;2023-07-02T05:03:13;27.10;;;12.30;;
15812;SDS011;8007;51.404;6.304;2023-07-02T05:05:15;22.67;;;12.37;;
15812;SDS011;8007;51.404;6.304;2023-07-02T05:07:18;22.50;;;11.87;;
15812;SDS011;8007;51.404;6.304;2023-07-02T05:09:21;29.93;;;12.13;;
15812;SDS011;8007;51.404;6.304;2023-07-02T05:11:23;27.83;;;12.23;;
15812;SDS011;8007;51.404;6.304;2023-07-02T05:13:26;25.43;;;11.33;;
15812;SDS011;8007;51.404;6.304;2023-07-02T05:15:28;28.60;;;11.50;;
15812;SDS011;8007;51.404;6.304;2023-07-02T05:17:32;23.93;;;11.73;;
15812;SDS011;8007;51.404;6.304;2023-07-02T05:19:36;27.23;;;12.17;;
15812;SDS011;8007;51.404;6.304;2023-07-02T05:21:38;29.83;;;12.27;;
15812;SDS011;8007;51.404;6.304;2023-07-02T05:23:41;23.63;;;11.83;;
15812;SDS011;8007;51.404;6.304;2023-07-02T05:25:44;23.30;;;12.03;;
15812;SDS011;8007;51.404;6.304;2023-07-02T05:27:47;28.63;;;12.00;;
15812;SDS011;8007;51.404;6.304;2023-07-02T05:29:52;23.83;;;11.93;;
15812;SDS011;8007;51.404;6.304;2023-07-02T05:31:54;27.30;;;11.70;;
15812;SDS011;8007;51.404;6.304;2023-07-02T05:33:56;25.17;;;11.77;;
15812;SDS011;8007;51.404;6.304;2023-07-02T05:35:58;19.33;;;10.13;;
15812;SDS011;8007;51.404;6.304;2023-07-02T05:38:01;20.50;;;10.70;;
15812;SDS011;8007;51.404;6.304;2023-07-02T05:40:03;26.03;;;11.33;;
15812;SDS011;8007;51.404;6.304;2023-07-02T05:42:08;23.13;;;11.10;;
15812;SDS011;8007;51.404;6.304;2023-07-02T05:44:10;21.03;;;10.77;;
15812;SDS011;8007;51.404;6.304;2023-07-02T05:46:12;21.30;;;10.73;;
15812;SDS011;8007;51.404;6.304;2023-07-02T05:48:15;24.97;;;11.07;;
15812;SDS011;8007;51.404;6.304;2023-07-02T05:50:19;22.50;;;10.83;;
15812;SDS011;8007;51.404;6.304;2023-07-02T05:52:21;23.57;;;10.90;;
15812;SDS011;8007;51.404;6.304;2023-07-02T05:54:23;26.97;;;10.60;;
15812;SDS011;8007;51.404;6.304;2023-07-02T05:56:26;25.33;;;11.50;;
15812;SDS011;8007;51.404;6.304;2023-07-02T05:58:29;25.37;;;10.53;;
15812;SDS011;8007;51.404;6.304;2023-07-02T06:00:32;23.47;;;10.13;;
15812;SDS011;8007;51.404;6.304;2023-07-02T06:02:37;25.30;;;10.43;;
15812;SDS011;8007;51.404;6.304;2023-07-02T06:04:39;22.47;;;11.23;;
15812;SDS011;8007;51.404;6.304;2023-07-02T06:06:41;26.13;;;10.00;;
15812;SDS011;8007;51.404;6.304;2023-07-02T06:08:44;20.73;;;9.77;;
15812;SDS011;8007;51.404;6.304;2023-07-02T06:10:46;24.93;;;10.63;;
15812;SDS011;8007;51.404;6.304;2023-07-02T06:12:49;22.37;;;10.00;;
15812;SDS011;8007;51.404;6.304;2023-07-02T06:14:53;18.83;;;9.70;;
15812;SDS011;8007;51.404;6.304;2023-07-02T06:16:55;21.47;;;9.37;;
15812;SDS011;8007;51.404;6.304;2023-07-02T06:18:59;17.40;;;8.57;;
15812;SDS011;8007;51.404;6.304;2023-07-02T06:21:03;19.50;;;9.70;;
15812;SDS011;8007;51.404;6.304;2023-07-02T06:23:05;21.67;;;9.23;;
15812;SDS011;8007;51.404;6.304;2023-07-02T06:25:08;19.43;;;9.10;;
15812;SDS011;8007;51.404;6.304;2023-07-02T06:27:11;18.07;;;8.57;;
15812;SDS011;8007;51.404;6.304;2023-07-02T06:29:14;21.53;;;9.17;;
15812;SDS011;8007;51.404;6.304;2023-07-02T06:31:20;15.60;;;8.63;;
15812;SDS011;8007;51.404;6.304;2023-07-02T06:33:22;22.93;;;9.57;;
15812;SDS011;8007;51.404;6.304;2023-07-02T06:35:25;16.03;;;8.43;;
15812;SDS011;8007;51.404;6.304;2023-07-02T06:37:27;21.50;;;9.30;;
15812;SDS011;8007;51.404;6.304;2023-07-02T06:39:29;19.73;;;9.47;;
15812;SDS011;8007;51.404;6.304;2023-07-02T06:41:31;18.10;;;8.47;;
15812;SDS011;8007;51.404;6.304;2023-07-02T06:43:34;17.63;;;8.63;;
15812;SDS011;8007;51.404;6.304;2023-07-02T06:45:36;17.07;;;8.13;;
15812;SDS011;8007;51.404;6.304;2023-07-02T06:47:40;16.83;;;8.10;;
15812;SDS011;8007;51.404;6.304;2023-07-02T06:49:44;18.03;;;9.30;;
15812;SDS011;8007;51.404;6.304;2023-07-02T06:51:47;15.97;;;8.67;;
15812;SDS011;8007;51.404;6.304;2023-07-02T06:53:49;17.10;;;8.20;;
15812;SDS011;8007;51.404;6.304;2023-07-02T06:55:51;18.23;;;8.37;;
15812;SDS011;8007;51.404;6.304;2023-07-02T06:57:54;15.87;;;7.43;;
15812;SDS011;8007;51.404;6.304;2023-07-02T06:59:57;21.50;;;8.43;;
15812;SDS011;8007;51.404;6.304;2023-07-02T07:02:00;18.90;;;8.40;;
15812;SDS011;8007;51.404;6.304;2023-07-02T07:04:04;16.73;;;7.27;;
15812;SDS011;8007;51.404;6.304;2023-07-02T07:06:06;13.43;;;7.10;;
15812;SDS011;8007;51.404;6.304;2023-07-02T07:08:08;14.17;;;7.70;;
15812;SDS011;8007;51.404;6.304;2023-07-02T07:10:10;17.43;;;8.43;;
15812;SDS011;8007;51.404;6.304;2023-07-02T07:12:13;15.63;;;7.60;;
15812;SDS011;8007;51.404;6.304;2023-07-02T07:14:15;16.03;;;7.77;;
15812;SDS011;8007;51.404;6.304;2023-07-02T07:16:18;15.83;;;6.70;;
15812;SDS011;8007;51.404;6.304;2023-07-02T07:18:23;15.97;;;7.47;;
15812;SDS011;8007;51.404;6.304;2023-07-02T07:20:26;14.50;;;6.70;;
15812;SDS011;8007;51.404;6.304;2023-07-02T07:22:29;15.70;;;6.60;;
15812;SDS011;8007;51.404;6.304;2023-07-02T07:24:31;17.87;;;7.20;;
15812;SDS011;8007;51.404;6.304;2023-07-02T07:26:33;13.90;;;6.67;;
15812;SDS011;8007;51.404;6.304;2023-07-02T07:28:36;14.73;;;6.23;;
15812;SDS011;8007;51.404;6.304;2023-07-02T07:30:38;12.00;;;6.87;;
15812;SDS011;8007;51.404;6.304;2023-07-02T07:32:40;14.83;;;6.37;;
15812;SDS011;8007;51.404;6.304;2023-07-02T07:34:43;10.73;;;6.50;;
15812;SDS011;8007;51.404;6.304;2023-07-02T07:36:46;17.27;;;6.80;;
15812;SDS011;8007;51.404;6.304;2023-07-02T07:38:48;13.83;;;6.50;;
15812;SDS011;8007;51.404;6.304;2023-07-02T07:40:51;13.27;;;6.17;;
15812;SDS011;8007;51.404;6.304;2023-07-02T07:42:53;12.27;;;5.60;;
15812;SDS011;8007;51.404;6.304;2023-07-02T07:44:55;10.23;;;5.97;;
15812;SDS011;8007;51.404;6.304;2023-07-02T07:46:58;14.70;;;5.90;;
15812;SDS011;8007;51.404;6.304;2023-07-02T07:49:00;13.10;;;6.40;;
15812;SDS011;8007;51.404;6.304;2023-07-02T07:51:04;11.87;;;5.83;;
15812;SDS011;8007;51.404;6.304;2023-07-02T07:53:08;11.27;;;5.70;;
15812;SDS011;8007;51.404;6.304;2023-07-02T07:55:10;14.43;;;5.90;;
15812;SDS011;8007;51.404;6.304;2023-07-02T07:57:12;13.40;;;6.30;;
15812;SDS011;8007;51.404;6.304;2023-07-02T07:59:15;15.83;;;5.77;;
15812;SDS011;8007;51.404;6.304;2023-07-02T08:01:17;9.43;;;5.63;;
15812;SDS011;8007;51.404;6.304;2023-07-02T08:03:20;12.40;;;6.00;;
15812;SDS011;8007;51.404;6.304;2023-07-02T08:05:22;13.30;;;5.90;;
15812;SDS011;8007;51.404;6.304;2023-07-02T08:07:25;13.77;;;5.90;;
15812;SDS011;8007;51.404;6.304;2023-07-02T08:09:29;12.00;;;5.87;;
15812;SDS011;8007;51.404;6.304;2023-07-02T08:11:31;12.38;;;6.35;;
15812;SDS011;8007;51.404;6.304;2023-07-02T08:13:34;10.65;;;5.78;;
15812;SDS011;8007;51.404;6.304;2023-07-02T08:15:37;15.33;;;6.50;;
15812;SDS011;8007;51.404;6.304;2023-07-02T08:17:39;13.23;;;6.25;;
15812;SDS011;8007;51.404;6.304;2023-07-02T08:19:41;11.30;;;5.90;;
15812;SDS011;8007;51.404;6.304;2023-07-02T08:21:43;12.27;;;6.28;;
15812;SDS011;8007;51.404;6.304;2023-07-02T08:23:46;15.23;;;5.90;;
15812;SDS011;8007;51.404;6.304;2023-07-02T08:25:50;11.52;;;5.57;;
15812;SDS011;8007;51.404;6.304;2023-07-02T08:27:52;12.77;;;6.25;;
15812;SDS011;8007;51.404;6.304;2023-07-02T08:29:54;11.30;;;5.80;;
15812;SDS011;8007;51.404;6.304;2023-07-02T08:31:56;11.07;;;5.53;;
15812;SDS011;8007;51.404;6.304;2023-07-02T08:33:59;10.15;;;6.43;;
15812;SDS011;8007;51.404;6.304;2023-07-02T08:36:01;10.18;;;6.20;;
15812;SDS011;8007;51.404;6.304;2023-07-02T08:38:03;12.38;;;5.97;;
15812;SDS011;8007;51.404;6.304;2023-07-02T08:40:15;14.27;;;6.65;;
15812;SDS011;8007;51.404;6.304;2023-07-02T08:42:19;10.70;;;6.47;;
15812;SDS011;8007;51.404;6.304;2023-07-02T08:44:21;16.20;;;6.15;;
15812;SDS011;8007;51.404;6.304;2023-07-02T08:46:24;11.60;;;6.50;;
15812;SDS011;8007;51.404;6.304;2023-07-02T08:48:26;15.13;;;6.18;;
15812;SDS011;8007;51.404;6.304;2023-07-02T08:50:29;14.15;;;6.47;;
15812;SDS011;8007;51.404;6.304;2023-07-02T08:52:31;12.38;;;6.00;;
15812;SDS011;8007;51.404;6.304;2023-07-02T08:54:34;13.77;;;6.60;;
15812;SDS011;8007;51.404;6.304;2023-07-02T08:56:36;12.48;;;6.82;;
15812;SDS011;8007;51.404;6.304;2023-07-02T08:58:40;15.55;;;6.75;;
15812;SDS011;8007;51.404;6.304;2023-07-02T09:00:52;12.15;;;6.72;;
15812;SDS011;8007;51.404;6.304;2023-07-02T09:03:13;15.00;;;6.68;;
15812;SDS011;8007;51.404;6.304;2023-07-02T09:05:16;11.13;;;6.07;;
15812;SDS011;8007;51.404;6.304;2023-07-02T09:07:18;12.65;;;6.00;;
15812;SDS011;8007;51.404;6.304;2023-07-02T09:09:20;12.02;;;5.80;;
15812;SDS011;8007;51.404;6.304;2023-07-02T09:11:23;11.70;;;5.97;;
15812;SDS011;8007;51.404;6.304;2023-07-02T09:13:25;11.50;;;5.90;;
15812;SDS011;8007;51.404;6.304;2023-07-02T09:15:34;11.00;;;5.40;;
15812;SDS011;8007;51.404;6.304;2023-07-02T09:17:37;8.68;;;4.93;;
15812;SDS011;8007;51.404;6.304;2023-07-02T09:19:48;9.73;;;4.83;;
15812;SDS011;8007;51.404;6.304;2023-07-02T09:21:51;10.35;;;4.97;;
15812;SDS011;8007;51.404;6.304;2023-07-02T09:23:55;8.40;;;4.85;;
15812;SDS011;8007;51.404;6.304;2023-07-02T09:25:58;12.40;;;4.97;;
15812;SDS011;8007;51.404;6.304;2023-07-02T09:28:00;10.73;;;5.22;;
15812;SDS011;8007;51.404;6.304;2023-07-02T09:30:08;7.70;;;4.70;;
15812;SDS011;8007;51.404;6.304;2023-07-02T09:32:23;9.82;;;5.15;;
15812;SDS011;8007;51.404;6.304;2023-07-02T09:34:27;9.02;;;4.57;;
15812;SDS011;8007;51.404;6.304;2023-07-02T09:36:30;9.77;;;5.15;;
15812;SDS011;8007;51.404;6.304;2023-07-02T09:38:32;9.30;;;5.18;;
15812;SDS011;8007;51.404;6.304;2023-07-02T09:40:34;10.18;;;5.00;;
15812;SDS011;8007;51.404;6.304;2023-07-02T09:42:38;10.43;;;5.38;;
15812;SDS011;8007;51.404;6.304;2023-07-02T09:44:42;9.52;;;5.10;;
15812;SDS011;8007;51.404;6.304;2023-07-02T09:46:45;10.70;;;5.68;;
15812;SDS011;8007;51.404;6.304;2023-07-02T09:48:55;9.93;;;5.70;;
15812;SDS011;8007;51.404;6.304;2023-07-02T09:50:58;9.00;;;5.35;;
15812;SDS011;8007;51.404;6.304;2023-07-02T09:53:01;9.38;;;5.72;;
15812;SDS011;8007;51.404;6.304;2023-07-02T09:55:04;10.95;;;5.32;;
15812;SDS011;8007;51.404;6.304;2023-07-02T09:57:07;12.07;;;5.57;;
15812;SDS011;8007;51.404;6.304;2023-07-02T09:59:10;9.55;;;5.70;;
15812;SDS011;8007;51.404;6.304;2023-07-02T10:01:12;8.90;;;5.18;;
15812;SDS011;8007;51.404;6.304;2023-07-02T10:03:17;13.52;;;5.70;;
15812;SDS011;8007;51.404;6.304;2023-07-02T10:05:32;9.75;;;5.45;;
15812;SDS011;8007;51.404;6.304;2023-07-02T10:07:35;11.63;;;5.68;;
15812;SDS011;8007;51.404;6.304;2023-07-02T10:09:38;9.25;;;5.25;;
15812;SDS011;8007;51.404;6.304;2023-07-02T10:11:40;10.77;;;5.13;;
15812;SDS011;8007;51.404;6.304;2023-07-02T10:13:43;11.77;;;5.20;;
15812;SDS011;8007;51.404;6.304;2023-07-02T10:15:45;9.73;;;5.20;;
15812;SDS011;8007;51.404;6.304;2023-07-02T10:17:53;11.88;;;5.28;;
15812;SDS011;8007;51.404;6.304;2023-07-02T10:19:57;10.55;;;5.50;;
15812;SDS011;8007;51.404;6.304;2023-07-02T10:22:02;12.07;;;5.18;;
15812;SDS011;8007;51.404;6.304;2023-07-02T10:24:11;10.40;;;5.03;;
15812;SDS011;8007;51.404;6.304;2023-07-02T10:26:14;11.35;;;5.22;;
15812;SDS011;8007;51.404;6.304;2023-07-02T10:28:18;11.32;;;5.05;;
15812;SDS011;8007;51.404;6.304;2023-07-02T10:30:30;12.02;;;5.80;;
15812;SDS011;8007;51.404;6.304;2023-07-02T10:32:33;9.43;;;4.97;;
15812;SDS011;8007;51.404;6.304;2023-07-02T10:34:36;9.85;;;4.93;;
15812;SDS011;8007;51.404;6.304;2023-07-02T10:36:38;10.55;;;5.15;;
15812;SDS011;8007;51.404;6.304;2023-07-02T10:38:42;12.20;;;5.70;;
15812;SDS011;8007;51.404;6.304;2023-07-02T10:40:44;12.13;;;5.93;;
15812;SDS011;8007;51.404;6.304;2023-07-02T10:42:47;10.25;;;5.05;;
15812;SDS011;8007;51.404;6.304;2023-07-02T10:44:51;6.70;;;4.43;;
15812;SDS011;8007;51.404;6.304;2023-07-02T10:46:53;10.30;;;4.85;;
15812;SDS011;8007;51.404;6.304;2023-07-02T10:48:56;10.20;;;4.40;;
15812;SDS011;8007;51.404;6.304;2023-07-02T10:50:59;9.90;;;4.50;;
15812;SDS011;8007;51.404;6.304;2023-07-02T10:53:03;7.65;;;4.28;;
15812;SDS011;8007;51.404;6.304;2023-07-02T10:55:07;9.60;;;4.93;;
15812;SDS011;8007;51.404;6.304;2023-07-02T10:57:10;10.05;;;5.35;;
15812;SDS011;8007;51.404;6.304;2023-07-02T10:59:22;10.60;;;5.57;;
15812;SDS011;8007;51.404;6.304;2023-07-02T11:01:25;7.88;;;4.70;;
15812;SDS011;8007;51.404;6.304;2023-07-02T11:03:28;7.97;;;4.25;;
15812;SDS011;8007;51.404;6.304;2023-07-02T11:05:31;9.82;;;5.00;;
15812;SDS011;8007;51.404;6.304;2023-07-02T11:07:33;9.30;;;5.10;;
15812;SDS011;8007;51.404;6.304;2023-07-02T11:09:35;10.05;;;4.55;;
15812;SDS011;8007;51.404;6.304;2023-07-02T11:11:48;11.13;;;5.18;;
15812;SDS011;8007;51.404;6.304;2023-07-02T11:13:52;9.02;;;4.85;;
15812;SDS011;8007;51.404;6.304;2023-07-02T11:15:54;8.02;;;4.43;;
15812;SDS011;8007;51.404;6.304;2023-07-02T11:17:56;8.75;;;4.90;;
15812;SDS011;8007;51.404;6.304;2023-07-02T11:20:09;9.52;;;4.45;;
15812;SDS011;8007;51.404;6.304;2023-07-02T11:22:18;8.60;;;5.22;;
15812;SDS011;8007;51.404;6.304;2023-07-02T11:24:50;9.65;;;5.35;;
15812;SDS011;8007;51.404;6.304;2023-07-02T11:29:38;11.85;;;5.45;;
15812;SDS011;8007;51.404;6.304;2023-07-02T11:31:45;9.35;;;5.22;;
15812;SDS011;8007;51.404;6.304;2023-07-02T11:33:49;9.25;;;5.55;;
15812;SDS011;8007;51.404;6.304;2023-07-02T11:35:54;12.95;;;5.63;;
15812;SDS011;8007;51.404;6.304;2023-07-02T11:38:25;8.63;;;5.65;;
15812;SDS011;8007;51.404;6.304;2023-07-02T11:40:58;8.85;;;5.82;;
15812;SDS011;8007;51.404;6.304;2023-07-02T11:43:19;11.98;;;6.75;;
15812;SDS011;8007;51.404;6.304;2023-07-02T11:45:36;11.35;;;5.75;;
15812;SDS011;8007;51.404;6.304;2023-07-02T11:47:46;13.65;;;6.47;;
15812;SDS011;8007;51.404;6.304;2023-07-02T11:50:24;11.48;;;5.78;;
15812;SDS011;8007;51.404;6.304;2023-07-02T11:52:41;8.68;;;5.97;;
15812;SDS011;8007;51.404;6.304;2023-07-02T11:55:26;12.70;;;6.72;;
15812;SDS011;8007;51.404;6.304;2023-07-02T11:57:32;10.35;;;6.32;;
15812;SDS011;8007;51.404;6.304;2023-07-02T11:59:46;10.38;;;5.95;;
15812;SDS011;8007;51.404;6.304;2023-07-02T12:01:58;10.77;;;6.55;;
15812;SDS011;8007;51.404;6.304;2023-07-02T12:04:40;8.13;;;5.65;;
15812;SDS011;8007;51.404;6.304;2023-07-02T12:06:52;11.35;;;6.95;;
15812;SDS011;8007;51.404;6.304;2023-07-02T12:09:14;12.43;;;7.10;;
15812;SDS011;8007;51.404;6.304;2023-07-02T12:11:33;9.40;;;6.32;;
15812;SDS011;8007;51.404;6.304;2023-07-02T12:13:39;16.88;;;7.53;;
15812;SDS011;8007;51.404;6.304;2023-07-02T12:15:51;11.90;;;6.80;;
15812;SDS011;8007;51.404;6.304;2023-07-02T12:18:19;9.98;;;6.63;;
15812;SDS011;8007;51.404;6.304;2023-07-02T12:20:31;13.65;;;7.40;;
15812;SDS011;8007;51.404;6.304;2023-07-02T12:22:38;14.30;;;7.47;;
15812;SDS011;8007;51.404;6.304;2023-07-02T12:24:41;10.10;;;7.40;;
15812;SDS011;8007;51.404;6.304;2023-07-02T12:26:45;10.52;;;7.10;;
15812;SDS011;8007;51.404;6.304;2023-07-02T12:29:16;8.70;;;6.93;;
15812;SDS011;8007;51.404;6.304;2023-07-02T12:31:45;16.33;;;7.53;;
15812;SDS011;8007;51.404;6.304;2023-07-02T12:36:31;11.88;;;7.10;;